Time;durP1;ratioP1;P1;durP2;ratioP2;P2;SDS_P1;SDS_P2;PMS_P1;PMS_P2;Temp;Humidity;BMP_temperature;BMP_pressure;BME280_temperature;BME280_humidity;BME280_pressure;Samples;Min_cycle;Max_cycle;Signal;HPM_P1;HPM_P2
2022/12/28 00:01:15;;;;;;;19.92;11.77;;;230.60;2252.80;;;;;;5091983;28;20024;-67
2022/12/28 00:03:42;;;;;;;30.27;21.42;;;230.60;2252.80;;;;;;5091980;28;20028;-68
2022/12/28 00:06:08;;;;;;;32.47;20.08;;;230.60;2252.80;;;;;;5091577;28;20059;-66
2022/12/28 00:08:33;;;;;;;67.30;37.38;;;230.40;2252.80;;;;;;5091611;28;20020;-65
2022/12/28 00:11:01;;;;;;;63.25;34.92;;;230.50;2252.80;;;;;;5090751;28;20055;-69
2022/12/28 00:13:29;;;;;;;49.53;27.63;;;230.40;2252.80;;;;;;5091683;28;20020;-66
2022/12/28 00:15:55;;;;;;;45.88;27.88;;;230.40;2252.80;;;;;;5091772;28;20024;-66
2022/12/28 00:18:21;;;;;;;45.72;26.30;;;205.70;2252.80;;;;;;5091462;28;20485;-67
2022/12/28 00:21:05;;;;;;;19.65;12.95;;;205.70;2252.80;;;;;;5091428;28;20032;-71
2022/12/28 00:23:30;;;;;;;40.08;25.42;;;205.60;2252.80;;;;;;5091372;28;20020;-70
2022/12/28 00:26:05;;;;;;;45.97;27.00;;;205.50;2252.80;;;;;;5090810;28;20524;-72
2022/12/28 00:28:31;;;;;;;61.63;38.92;;;205.30;2252.80;;;;;;5091030;28;20500;-69
2022/12/28 00:30:57;;;;;;;68.63;41.95;;;205.40;2252.80;;;;;;5091160;28;20036;-66
2022/12/28 00:33:22;;;;;;;93.97;59.33;;;205.40;2252.80;;;;;;5091366;28;20022;-70
2022/12/28 00:35:55;;;;;;;104.35;60.05;;;205.50;2252.80;;;;;;5089487;28;20036;-66
2022/12/28 00:38:21;;;;;;;59.78;36.95;;;205.40;2252.80;;;;;;5091349;28;20465;-68
2022/12/28 00:40:47;;;;;;;58.22;31.98;;;205.50;2252.80;;;;;;5091067;28;20114;-70
2022/12/28 00:43:12;;;;;;;63.03;35.45;;;205.50;2252.80;;;;;;5091100;28;20119;-65
2022/12/28 00:45:38;;;;;;;30.42;18.88;;;205.50;2252.80;;;;;;5090828;28;20028;-66
2022/12/28 00:48:04;;;;;;;34.20;21.73;;;205.40;2252.80;;;;;;5091181;28;20118;-65
2022/12/28 00:50:30;;;;;;;71.00;45.80;;;205.20;2252.80;;;;;;5090713;28;20082;-65
2022/12/28 00:52:56;;;;;;;113.57;72.07;;;205.00;2252.80;;;;;;5090695;28;20032;-65
2022/12/28 00:55:21;;;;;;;104.22;67.43;;;180.00;2252.80;;;;;;5090805;28;20012;-64
2022/12/28 00:57:47;;;;;;;111.40;64.00;;;180.00;2252.80;;;;;;5090820;28;20035;-69
2022/12/28 01:00:13;;;;;;;95.15;60.60;;;180.10;2252.80;;;;;;5091071;28;20109;-73
2022/12/28 01:02:39;;;;;;;101.28;65.80;;;180.10;2252.80;;;;;;5091645;28;20418;-65
2022/12/28 01:05:05;;;;;;;85.25;48.38;;;180.10;2252.80;;;;;;5091831;28;20464;-74
2022/12/28 01:07:31;;;;;;;74.68;48.10;;;180.00;2252.80;;;;;;5093082;28;20024;-75
2022/12/28 01:09:57;;;;;;;140.20;82.63;;;179.90;2252.80;;;;;;5091738;28;20036;-72
2022/12/28 01:12:22;;;;;;;207.55;122.13;;;179.90;2252.80;;;;;;5090820;28;20066;-68
2022/12/28 01:14:48;;;;;;;164.48;92.90;;;179.90;2252.80;;;;;;5090384;28;20071;-67
2022/12/28 01:17:14;;;;;;;112.82;64.43;;;180.00;2252.80;;;;;;5090646;28;20032;-72
2022/12/28 01:19:39;;;;;;;85.13;49.92;;;179.90;2252.80;;;;;;5090294;28;20028;-74
2022/12/28 01:22:05;;;;;;;70.05;46.17;;;179.90;2252.80;;;;;;5090415;28;20020;-72
2022/12/28 01:24:31;;;;;;;79.88;43.28;;;179.70;2252.80;;;;;;5090351;28;20081;-73
2022/12/28 01:26:56;;;;;;;146.38;93.88;;;179.70;2252.80;;;;;;5090221;28;20035;-68
2022/12/28 01:29:22;;;;;;;60.53;36.85;;;179.70;2252.80;;;;;;5090440;28;20095;-70
2022/12/28 01:31:48;;;;;;;71.05;38.95;;;179.70;2252.80;;;;;;5090268;28;20036;-66
2022/12/28 01:34:13;;;;;;;79.60;46.83;;;179.80;2252.80;;;;;;5090374;28;20016;-68
2022/12/28 01:36:39;;;;;;;82.15;49.20;;;179.80;2252.80;;;;;;5090171;28;20094;-65
2022/12/28 01:39:05;;;;;;;73.72;45.10;;;179.70;2252.80;;;;;;5089931;28;20138;-73
2022/12/28 01:41:35;;;;;;;52.10;31.98;;;179.70;2252.80;;;;;;5089877;28;20436;-66
2022/12/28 01:44:00;;;;;;;72.00;37.75;;;179.40;2252.80;;;;;;5089944;28;20537;-73
2022/12/28 01:46:47;;;;;;;44.92;27.13;;;179.40;2252.80;;;;;;5090007;28;20097;-66
2022/12/28 01:49:21;;;;;;;54.85;32.38;;;179.30;2252.80;;;;;;5090186;28;20012;-67
2022/12/28 01:51:52;;;;;;;38.50;22.83;;;179.20;2252.80;;;;;;5090025;28;20035;-72
2022/12/28 01:54:19;;;;;;;21.80;10.65;;;179.40;2252.80;;;;;;5090017;28;20453;-71
2022/12/28 01:56:46;;;;;;;23.20;14.15;;;179.30;2252.80;;;;;;5090089;28;20488;-75
2022/12/28 01:59:12;;;;;;;25.80;17.98;;;179.30;2252.80;;;;;;5090097;28;20024;-71
2022/12/28 02:01:38;;;;;;;33.50;23.95;;;179.40;2252.80;;;;;;5089933;28;20028;-67
2022/12/28 02:04:04;;;;;;;49.20;31.15;;;179.30;2252.80;;;;;;5090061;28;20355;-73
2022/12/28 02:06:31;;;;;;;34.35;22.25;;;179.20;2252.80;;;;;;5089853;28;20032;-75
2022/12/28 02:09:08;;;;;;;29.40;18.20;;;154.50;2252.80;;;;;;5089683;28;20570;-66
2022/12/28 02:11:34;;;;;;;38.85;23.60;;;154.30;2252.80;;;;;;5089819;28;20047;-75
2022/12/28 02:14:01;;;;;;;61.65;37.33;;;154.30;2252.80;;;;;;5089824;28;20103;-65
2022/12/28 02:16:27;;;;;;;60.83;38.22;;;154.40;2252.80;;;;;;5089668;28;20051;-73
2022/12/28 02:18:53;;;;;;;49.60;30.45;;;154.40;2252.80;;;;;;5090064;28;20157;-72
2022/12/28 02:21:41;;;;;;;37.58;26.50;;;154.20;2252.80;;;;;;5089697;28;20027;-75
2022/12/28 02:24:37;;;;;;;40.40;22.02;;;154.20;2252.80;;;;;;5089504;28;20028;-67
2022/12/28 02:27:34;;;;;;;55.85;31.30;;;154.30;2252.80;;;;;;5089484;28;20533;-70
2022/12/28 02:30:10;;;;;;;43.83;24.85;;;154.20;2252.80;;;;;;5007631;28;20049;-72
2022/12/28 02:33:05;;;;;;;47.50;29.45;;;154.10;2252.80;;;;;;5007855;28;20033;-69
2022/12/28 02:35:39;;;;;;;34.90;23.85;;;154.20;2252.80;;;;;;5007445;28;20034;-72
2022/12/28 02:38:36;;;;;;;37.40;22.60;;;154.10;2252.80;;;;;;5007770;28;20037;-67
2022/12/28 02:41:15;;;;;;;28.08;18.45;;;154.10;2252.80;;;;;;5007577;28;20378;-72
2022/12/28 02:43:41;;;;;;;37.42;23.17;;;154.00;2252.80;;;;;;5007128;28;20054;-68
2022/12/28 02:52:02;;;;;;;47.05;24.77;;;153.90;2252.80;;;;;;5010899;28;20474;-64
2022/12/28 02:58:08;;;;;;;42.72;26.23;;;154.00;2252.80;;;;;;5011080;28;20064;-65
2022/12/28 03:00:57;;;;;;;32.97;17.02;;;154.10;2252.80;;;;;;5010864;28;20088;-64
2022/12/28 03:03:54;;;;;;;39.05;19.90;;;154.10;2252.80;;;;;;5010994;28;20026;-64
2022/12/28 03:09:40;;;;;;;30.35;18.20;;;154.10;2252.80;;;;;;5093240;28;20039;-71
2022/12/28 03:12:11;;;;;;;18.25;12.45;;;154.00;2252.80;;;;;;5092797;28;20036;-72
2022/12/28 03:14:42;;;;;;;19.90;10.15;;;153.90;2252.80;;;;;;5092759;28;20027;-66
2022/12/28 03:31:17;;;;;;;33.28;9.70;;;153.60;2252.80;;;;;;5092295;28;20038;-71
2022/12/28 03:33:48;;;;;;;14.93;9.30;;;128.90;2252.80;;;;;;5092704;28;20028;-71
2022/12/28 03:36:27;;;;;;;25.88;13.65;;;128.90;2252.80;;;;;;5092541;28;20028;-67
2022/12/28 03:39:14;;;;;;;17.40;10.02;;;153.60;2252.80;;;;;;5092239;28;20073;-64
2022/12/28 03:44:53;;;;;;;21.48;10.80;;;128.60;2252.80;;;;;;5092507;28;20050;-67
2022/12/28 03:47:22;;;;;;;23.40;15.13;;;128.70;2252.80;;;;;;5092156;28;20048;-68
2022/12/28 03:49:49;;;;;;;12.85;8.45;;;128.60;2252.80;;;;;;5091876;28;20359;-64
2022/12/28 03:52:15;;;;;;;23.50;12.10;;;128.50;2252.80;;;;;;5092233;28;20107;-69
2022/12/28 03:54:41;;;;;;;31.88;17.77;;;128.60;2252.80;;;;;;5091778;28;20382;-70
2022/12/28 03:57:07;;;;;;;43.75;23.75;;;128.60;2252.80;;;;;;5091838;28;20024;-69
2022/12/28 03:59:32;;;;;;;30.95;17.88;;;128.30;2252.80;;;;;;5091820;28;20066;-70
2022/12/28 04:01:58;;;;;;;33.42;16.23;;;128.40;2252.80;;;;;;5091611;28;20020;-69
2022/12/28 04:04:24;;;;;;;27.85;17.95;;;128.50;2252.80;;;;;;5091933;28;20098;-65
2022/12/28 04:06:49;;;;;;;27.38;15.52;;;128.60;2252.80;;;;;;5091628;28;20031;-67
2022/12/28 04:09:15;;;;;;;22.50;12.85;;;128.70;2252.80;;;;;;5091912;28;20497;-71
2022/12/28 04:11:41;;;;;;;66.55;34.83;;;128.60;2252.80;;;;;;5091404;28;20413;-64
2022/12/28 04:14:06;;;;;;;71.90;38.42;;;128.60;2252.80;;;;;;5091365;28;20458;-66
2022/12/28 04:16:33;;;;;;;63.08;35.60;;;128.60;2252.80;;;;;;5092052;28;20028;-64
2022/12/28 04:18:59;;;;;;;90.15;47.03;;;128.60;2252.80;;;;;;5091323;28;20036;-64
2022/12/28 04:21:25;;;;;;;47.28;26.05;;;128.50;2252.80;;;;;;5091770;28;20087;-69
2022/12/28 04:23:51;;;;;;;25.50;16.77;;;128.40;2252.80;;;;;;5091480;28;20062;-66
2022/12/28 04:26:17;;;;;;;19.42;13.65;;;128.40;2252.80;;;;;;5091464;28;20024;-68
2022/12/28 04:28:43;;;;;;;37.17;20.48;;;128.40;2252.80;;;;;;5091594;28;20476;-65
2022/12/28 04:31:12;;;;;;;131.20;75.25;;;128.40;2252.80;;;;;;5091027;28;20032;-69
2022/12/28 04:33:38;;;;;;;69.50;44.00;;;128.30;2252.80;;;;;;5091343;28;20078;-68
2022/12/28 04:36:06;;;;;;;24.70;14.73;;;128.20;2252.80;;;;;;5091343;28;20119;-70
2022/12/28 04:38:32;;;;;;;63.88;34.90;;;103.30;2227.20;;;;;;5091133;28;20039;-72
2022/12/28 04:40:58;;;;;;;96.97;53.72;;;103.10;2227.20;;;;;;5091320;28;20370;-66
2022/12/28 04:43:24;;;;;;;86.65;53.35;;;103.20;2227.20;;;;;;5090643;28;20074;-68
2022/12/28 04:46:01;;;;;;;68.53;40.17;;;103.30;2227.20;;;;;;5090957;28;20354;-67
2022/12/28 04:48:27;;;;;;;58.17;32.60;;;128.00;2252.80;;;;;;5090926;28;20023;-66
2022/12/28 04:50:53;;;;;;;50.20;27.42;;;128.00;2252.80;;;;;;5091078;28;20637;-66
2022/12/28 04:53:20;;;;;;;63.03;38.55;;;128.00;2252.80;;;;;;5090991;28;20062;-67
2022/12/28 04:55:45;;;;;;;42.38;25.52;;;128.00;2252.80;;;;;;5090559;28;20035;-67
2022/12/28 04:58:11;;;;;;;26.52;17.35;;;128.00;2252.80;;;;;;5090707;28;20032;-66
2022/12/28 05:00:37;;;;;;;32.53;20.50;;;103.30;2227.20;;;;;;5090463;28;20115;-64
2022/12/28 05:03:03;;;;;;;74.60;38.83;;;103.30;2227.20;;;;;;5090769;28;20027;-64
2022/12/28 05:05:29;;;;;;;72.03;34.58;;;103.30;2227.20;;;;;;5090473;28;20029;-70
2022/12/28 05:07:58;;;;;;;43.60;20.95;;;103.30;2227.20;;;;;;5090660;28;20431;-65
2022/12/28 05:10:24;;;;;;;21.73;12.75;;;128.00;2252.80;;;;;;5090190;28;20055;-71
2022/12/28 05:12:49;;;;;;;20.33;12.45;;;128.00;2252.80;;;;;;5089826;28;20036;-66
2022/12/28 05:15:15;;;;;;;23.88;15.68;;;103.20;2227.20;;;;;;5090735;28;20051;-69
2022/12/28 05:17:41;;;;;;;28.60;18.05;;;103.20;2227.20;;;;;;5090760;28;20046;-66
2022/12/28 05:20:07;;;;;;;58.08;32.38;;;103.20;2227.20;;;;;;5090209;28;20081;-71
2022/12/28 05:22:32;;;;;;;51.92;25.67;;;103.20;2227.20;;;;;;5090496;28;20504;-64
2022/12/28 05:24:58;;;;;;;91.63;48.88;;;103.20;2227.20;;;;;;5090228;28;20063;-70
2022/12/28 05:27:24;;;;;;;145.90;68.38;;;103.20;2227.20;;;;;;5090385;28;20028;-67
2022/12/28 05:29:49;;;;;;;130.93;64.18;;;103.20;2227.20;;;;;;5090188;28;20062;-66
2022/12/28 05:32:15;;;;;;;94.10;43.90;;;103.20;2227.20;;;;;;5090475;28;20032;-64
2022/12/28 05:34:41;;;;;;;40.50;19.27;;;103.20;2227.20;;;;;;5090527;28;20509;-68
2022/12/28 05:37:07;;;;;;;39.20;20.67;;;103.20;2227.20;;;;;;5090084;28;20484;-71
2022/12/28 05:39:32;;;;;;;25.40;13.38;;;103.10;2227.20;;;;;;5089962;28;20028;-67
2022/12/28 05:41:59;;;;;;;90.10;46.85;;;102.90;2227.20;;;;;;5089967;28;20032;-69
2022/12/28 05:44:29;;;;;;;64.10;36.65;;;102.80;2227.20;;;;;;5090034;28;20077;-65
2022/12/28 05:46:54;;;;;;;48.08;23.30;;;102.90;2227.20;;;;;;5090256;28;20470;-71
2022/12/28 05:49:20;;;;;;;37.85;21.13;;;102.80;2227.20;;;;;;5089959;28;20028;-69
2022/12/28 05:51:51;;;;;;;87.32;44.80;;;102.70;2227.20;;;;;;5089373;28;20474;-68
2022/12/28 05:54:17;;;;;;;168.02;87.78;;;102.80;2227.20;;;;;;5089625;28;20035;-68
2022/12/28 05:56:43;;;;;;;54.47;28.13;;;102.90;2227.20;;;;;;5089962;28;20020;-70
2022/12/28 05:59:09;;;;;;;126.28;62.88;;;102.80;2227.20;;;;;;5089897;28;20025;-66
2022/12/28 06:01:39;;;;;;;146.90;79.15;;;102.80;2227.20;;;;;;5090071;28;20447;-73
2022/12/28 06:04:07;;;;;;;62.17;32.00;;;102.80;2227.20;;;;;;5090009;28;20027;-74
2022/12/28 06:06:34;;;;;;;42.15;20.77;;;102.80;2227.20;;;;;;5090140;28;20024;-72
2022/12/28 06:09:00;;;;;;;22.17;13.18;;;102.80;2227.20;;;;;;5089546;28;20115;-65
2022/12/28 06:11:27;;;;;;;16.83;8.48;;;102.80;2227.20;;;;;;5089394;28;20477;-69
2022/12/28 06:13:53;;;;;;;139.27;68.00;;;102.90;2227.20;;;;;;5089997;28;20107;-69
2022/12/28 06:16:29;;;;;;;86.38;48.15;;;103.00;2227.20;;;;;;5089740;28;20114;-72
2022/12/28 06:18:55;;;;;;;52.00;27.63;;;103.00;2227.20;;;;;;5089978;28;20037;-66
2022/12/28 06:21:29;;;;;;;38.60;24.20;;;102.90;2227.20;;;;;;5090088;28;20036;-69
2022/12/28 06:23:56;;;;;;;214.52;99.30;;;102.80;2227.20;;;;;;5089931;28;20107;-72
2022/12/28 06:26:23;;;;;;;116.80;59.17;;;102.70;2227.20;;;;;;5092926;28;20032;-72
2022/12/28 06:28:49;;;;;;;78.88;44.67;;;102.70;2227.20;;;;;;5093866;28;20028;-73
2022/12/28 06:31:17;;;;;;;48.65;27.15;;;102.80;2227.20;;;;;;5093765;28;20040;-65
2022/12/28 06:33:44;;;;;;;49.60;25.77;;;102.90;2227.20;;;;;;5093735;28;20462;-70
2022/12/28 06:36:18;;;;;;;193.45;124.45;;;103.00;2227.20;;;;;;5091899;28;20468;-69
2022/12/28 06:38:45;;;;;;;87.72;53.67;;;103.00;2227.20;;;;;;5093697;28;20028;-69
2022/12/28 06:41:13;;;;;;;23.50;15.00;;;103.20;2227.20;;;;;;5093335;28;20089;-64
2022/12/28 06:43:40;;;;;;;25.25;19.55;;;103.10;2227.20;;;;;;5092845;28;20516;-70
2022/12/28 06:46:06;;;;;;;23.90;19.48;;;103.00;2227.20;;;;;;5093535;28;20028;-64
2022/12/28 06:48:33;;;;;;;30.30;25.52;;;103.20;2227.20;;;;;;5093437;28;20067;-65
2022/12/28 06:51:02;;;;;;;22.33;13.75;;;103.30;2227.20;;;;;;5093051;28;20040;-70
2022/12/28 06:53:31;;;;;;;19.60;13.18;;;103.30;2227.20;;;;;;5093134;28;20428;-70
2022/12/28 06:56:01;;;;;;;13.32;7.53;;;128.00;2252.80;;;;;;5092748;28;20020;-63
2022/12/28 06:58:29;;;;;;;13.75;7.07;;;128.20;2252.80;;;;;;5093156;28;20119;-71
2022/12/28 07:00:55;;;;;;;16.10;8.38;;;128.20;2252.80;;;;;;5093156;28;20073;-66
2022/12/28 07:03:22;;;;;;;113.65;76.47;;;128.20;2252.80;;;;;;5092884;28;20111;-71
2022/12/28 07:05:48;;;;;;;33.85;24.63;;;128.30;2252.80;;;;;;5093131;28;20036;-69
2022/12/28 07:08:13;;;;;;;27.60;19.05;;;128.40;2252.80;;;;;;5093089;28;20103;-64
2022/12/28 07:10:39;;;;;;;49.67;31.40;;;128.40;2252.80;;;;;;5092417;28;20123;-67
2022/12/28 07:13:06;;;;;;;34.65;25.30;;;128.50;2252.80;;;;;;5092873;28;20486;-70
2022/12/28 07:15:33;;;;;;;33.45;21.83;;;128.50;2252.80;;;;;;5093157;28;20089;-67
2022/12/28 07:17:59;;;;;;;66.90;43.33;;;128.60;2252.80;;;;;;5092607;28;20052;-71
2022/12/28 07:20:25;;;;;;;68.28;42.40;;;128.50;2252.80;;;;;;5092970;28;20063;-72
2022/12/28 07:22:50;;;;;;;66.88;41.53;;;128.50;2252.80;;;;;;5092632;28;20422;-71
2022/12/28 07:25:16;;;;;;;71.50;49.90;;;128.70;2252.80;;;;;;5092741;28;20016;-72
2022/12/28 07:27:42;;;;;;;96.13;74.15;;;128.70;2252.80;;;;;;5092562;28;20070;-71
2022/12/28 07:30:08;;;;;;;94.72;64.88;;;128.60;2252.80;;;;;;5092417;28;20043;-69
2022/12/28 07:32:37;;;;;;;84.63;52.80;;;128.60;2252.80;;;;;;5092858;28;20114;-71
2022/12/28 07:35:04;;;;;;;115.40;80.40;;;128.40;2252.80;;;;;;5092527;28;20100;-72
2022/12/28 07:37:30;;;;;;;174.30;118.07;;;128.60;2252.80;;;;;;5092004;28;20367;-67
2022/12/28 07:39:55;;;;;;;115.72;82.68;;;128.80;2252.80;;;;;;5092273;28;20024;-65
2022/12/28 07:42:21;;;;;;;253.55;172.05;;;128.70;2252.80;;;;;;5091861;28;20028;-69
2022/12/28 07:44:47;;;;;;;244.75;160.77;;;128.70;2252.80;;;;;;5092154;28;20024;-63
2022/12/28 07:47:13;;;;;;;272.80;191.52;;;128.60;2252.80;;;;;;5091743;28;20032;-61
2022/12/28 07:49:39;;;;;;;256.58;180.55;;;128.30;2252.80;;;;;;5091774;28;20425;-64
2022/12/28 07:52:05;;;;;;;227.05;148.45;;;128.10;2252.80;;;;;;5091958;28;20032;-60
2022/12/28 07:54:31;;;;;;;210.07;147.95;;;128.00;2252.80;;;;;;5091579;28;20035;-60
2022/12/28 07:56:57;;;;;;;184.77;133.60;;;128.50;2252.80;;;;;;5091607;28;20089;-62
2022/12/28 07:59:22;;;;;;;197.32;128.00;;;128.90;2252.80;;;;;;5091898;28;20024;-62
2022/12/28 08:01:51;;;;;;;198.07;140.23;;;153.60;2252.80;;;;;;5091710;28;20030;-61
2022/12/28 08:04:17;;;;;;;224.95;158.48;;;153.90;2252.80;;;;;;5091978;28;20032;-63
2022/12/28 08:06:44;;;;;;;197.80;140.65;;;154.00;2252.80;;;;;;5091903;28;20476;-61
2022/12/28 08:09:12;;;;;;;189.18;126.78;;;153.90;2252.80;;;;;;5091582;28;20157;-61
2022/12/28 08:11:41;;;;;;;131.18;91.32;;;153.70;2252.80;;;;;;5091497;28;20044;-61
2022/12/28 08:14:09;;;;;;;182.65;123.88;;;153.60;2252.80;;;;;;5091660;28;20052;-61
2022/12/28 08:16:40;;;;;;;241.38;164.50;;;153.60;2252.80;;;;;;5091916;28;20115;-62
2022/12/28 08:19:07;;;;;;;222.75;157.30;;;153.60;2252.80;;;;;;5091704;28;20034;-61
2022/12/28 08:21:39;;;;;;;230.10;160.25;;;128.90;2252.80;;;;;;5091716;28;20035;-61
2022/12/28 08:24:06;;;;;;;207.48;146.65;;;153.60;2252.80;;;;;;5091410;28;20080;-61
2022/12/28 08:26:35;;;;;;;229.05;156.20;;;153.80;2252.80;;;;;;5091859;28;20031;-61
2022/12/28 08:29:03;;;;;;;224.05;156.98;;;179.80;2252.80;;;;;;5091248;28;20078;-61
2022/12/28 08:31:32;;;;;;;184.07;130.25;;;180.00;2252.80;;;;;;5091167;28;20039;-61
2022/12/28 08:33:59;;;;;;;174.93;126.82;;;179.90;2252.80;;;;;;5091496;28;20047;-61
2022/12/28 08:36:25;;;;;;;241.10;157.82;;;180.00;2252.80;;;;;;5091400;28;20098;-61
2022/12/28 08:38:51;;;;;;;213.32;151.45;;;180.10;2252.80;;;;;;5091042;28;20024;-62
2022/12/28 08:41:22;;;;;;;181.43;127.05;;;180.00;2252.80;;;;;;5091321;28;20042;-62
2022/12/28 08:43:48;;;;;;;189.50;139.10;;;205.00;2252.80;;;;;;5090901;28;20072;-62
2022/12/28 08:46:22;;;;;;;157.52;117.25;;;205.70;2252.80;;;;;;5091157;28;20422;-63
2022/12/28 08:48:48;;;;;;;168.43;127.07;;;256.70;2252.80;;;;;;5090285;28;20039;-61
2022/12/28 08:51:20;;;;;;;171.68;133.40;;;307.50;2304.00;;;;;;5091167;28;20040;-62
2022/12/28 08:53:46;;;;;;;236.90;192.35;;;333.40;2201.60;;;;;;5091115;28;20031;-62
2022/12/28 08:56:14;;;;;;;219.32;176.77;;;333.30;2176.00;;;;;;5090901;28;20028;-62
2022/12/28 08:58:41;;;;;;;187.10;156.85;;;358.60;2073.60;;;;;;5090548;28;20832;-62
2022/12/28 09:01:12;;;;;;;246.32;198.40;;;384.20;1971.20;;;;;;5090864;28;20243;-62
2022/12/28 09:03:40;;;;;;;188.70;163.20;;;410.10;1920.00;;;;;;5090558;28;20379;-63
2022/12/28 09:06:09;;;;;;;199.65;177.57;;;410.50;1843.20;;;;;;5090657;28;20051;-62
2022/12/28 09:08:35;;;;;;;182.45;162.35;;;435.50;1817.60;;;;;;5090598;28;20028;-64
2022/12/28 09:11:03;;;;;;;154.07;132.93;;;410.30;1817.60;;;;;;5090200;28;20478;-62
2022/12/28 09:13:29;;;;;;;139.13;114.78;;;435.50;1792.00;;;;;;5090152;28;20531;-62
2022/12/28 09:15:56;;;;;;;104.88;89.57;;;435.50;1766.40;;;;;;5090571;28;20024;-62
2022/12/28 09:18:22;;;;;;;93.03;82.95;;;410.40;1792.00;;;;;;5090517;28;20049;-62
2022/12/28 09:20:48;;;;;;;85.13;68.35;;;410.00;1792.00;;;;;;5090147;28;20420;-62
2022/12/28 09:23:13;;;;;;;86.80;71.15;;;409.70;1792.00;;;;;;5090579;28;20024;-62
2022/12/28 09:25:39;;;;;;;87.57;65.78;;;384.30;1817.60;;;;;;5090183;28;20485;-61
2022/12/28 09:28:05;;;;;;;91.75;67.03;;;358.90;1868.80;;;;;;5090362;28;20023;-62
2022/12/28 09:30:31;;;;;;;103.72;80.55;;;358.90;1868.80;;;;;;5090031;28;20390;-63
2022/12/28 09:33:57;;;;;;;111.55;81.60;;;333.40;1945.60;;;;;;5090396;28;20031;-61
2022/12/28 09:35:42;;;;;;;104.75;73.32;;;307.90;2022.40;;;;;;5090269;28;20032;-62
2022/12/28 09:38:08;;;;;;;98.63;70.93;;;282.50;2073.60;;;;;;5090193;28;20031;-61
2022/12/28 09:40:34;;;;;;;97.38;71.78;;;281.90;2124.80;;;;;;5090152;28;20494;-61
2022/12/28 09:43:01;;;;;;;120.30;79.20;;;256.70;2176.00;;;;;;5089837;28;20135;-61
2022/12/28 09:45:29;;;;;;;108.00;77.20;;;256.10;2252.80;;;;;;5090620;28;20036;-64
2022/12/28 09:48:08;;;;;;;104.22;75.30;;;231.20;2252.80;;;;;;5090963;28;20016;-63
2022/12/28 09:50:35;;;;;;;94.80;60.00;;;231.10;2252.80;;;;;;5090371;28;20032;-64
2022/12/28 09:53:14;;;;;;;72.60;45.55;;;231.10;2252.80;;;;;;5089865;28;20024;-62
2022/12/28 09:55:43;;;;;;;66.40;41.03;;;231.00;2252.80;;;;;;5089962;28;20059;-61
2022/12/28 09:58:16;;;;;;;48.63;35.45;;;231.20;2252.80;;;;;;5089978;28;20024;-61
2022/12/28 10:00:49;;;;;;;42.30;29.88;;;230.90;2252.80;;;;;;5094130;28;20115;-61
2022/12/28 10:03:22;;;;;;;35.53;25.42;;;230.80;2252.80;;;;;;5094345;28;20409;-61
2022/12/28 10:05:49;;;;;;;;;;;230.70;2252.80;;;;;;5094831;28;20055;-60
2022/12/28 10:08:18;;;;;;;42.90;25.77;;;230.80;2252.80;;;;;;5094275;28;19946;-60
2022/12/28 10:10:44;;;;;;;39.00;25.67;;;230.80;2252.80;;;;;;5093972;28;20039;-61
2022/12/28 10:13:22;;;;;;;40.17;27.52;;;230.80;2252.80;;;;;;5093882;28;20024;-60
2022/12/28 10:15:48;;;;;;;45.38;29.52;;;230.90;2252.80;;;;;;5094080;28;20059;-61
2022/12/28 10:18:23;;;;;;;40.47;30.48;;;230.90;2252.80;;;;;;5094067;28;20386;-61
2022/12/28 10:20:49;;;;;;;59.78;39.45;;;230.70;2252.80;;;;;;5093808;28;20432;-60
2022/12/28 10:23:28;;;;;;;70.57;42.97;;;230.70;2252.80;;;;;;5092703;28;20024;-60
2022/12/28 10:25:56;;;;;;;78.32;54.92;;;230.70;2252.80;;;;;;5093650;28;20028;-60
2022/12/28 10:28:26;;;;;;;71.30;45.55;;;230.60;2252.80;;;;;;5093787;28;20462;-60
2022/12/28 10:31:05;;;;;;;66.35;44.53;;;230.60;2252.80;;;;;;5093481;28;20036;-60
2022/12/28 10:33:31;;;;;;;85.07;45.63;;;230.50;2252.80;;;;;;5093456;28;20028;-60
2022/12/28 10:35:57;;;;;;;85.00;45.60;;;230.60;2252.80;;;;;;5093595;28;20485;-60
2022/12/28 10:38:23;;;;;;;78.20;48.08;;;230.60;2252.80;;;;;;5093457;28;20528;-59
2022/12/28 10:40:55;;;;;;;73.22;39.00;;;230.50;2252.80;;;;;;5093327;28;20032;-60
2022/12/28 10:43:20;;;;;;;56.60;32.85;;;230.60;2252.80;;;;;;5092786;28;20076;-60
2022/12/28 10:45:50;;;;;;;55.50;33.17;;;230.60;2252.80;;;;;;5093655;28;20571;-60
2022/12/28 10:48:23;;;;;;;44.85;25.65;;;230.50;2252.80;;;;;;5093671;28;20111;-59
2022/12/28 10:50:48;;;;;;;;;;;230.60;2252.80;;;;;;5093715;28;20032;-60
2022/12/28 10:53:27;;;;;;;43.03;27.40;;;230.70;2252.80;;;;;;5093215;28;20032;-60
2022/12/28 10:56:14;;;;;;;40.95;25.83;;;230.70;2252.80;;;;;;5093496;28;20020;-60
2022/12/28 10:58:43;;;;;;;40.72;26.60;;;230.50;2252.80;;;;;;5092976;28;20481;-60
2022/12/28 11:01:12;;;;;;;51.50;36.47;;;230.70;2252.80;;;;;;5093298;28;20471;-60
2022/12/28 11:03:40;;;;;;;60.90;39.70;;;230.60;2252.80;;;;;;5092635;28;20203;-61
2022/12/28 11:06:19;;;;;;;39.33;25.13;;;230.70;2252.80;;;;;;5093227;28;20355;-60
2022/12/28 11:08:58;;;;;;;33.65;22.30;;;230.60;2252.80;;;;;;5093038;28;20024;-62
2022/12/28 11:11:25;;;;;;;32.95;19.63;;;230.70;2252.80;;;;;;5092026;28;20043;-61
2022/12/28 11:13:59;;;;;;;32.90;22.27;;;230.70;2252.80;;;;;;5092518;28;20031;-61
2022/12/28 11:16:25;;;;;;;51.25;32.65;;;231.00;2252.80;;;;;;5092401;28;20489;-60
2022/12/28 11:18:52;;;;;;;30.20;18.60;;;230.90;2252.80;;;;;;5092088;28;20024;-62
2022/12/28 11:21:20;;;;;;;30.58;20.48;;;231.00;2252.80;;;;;;5092553;28;20028;-61
2022/12/28 11:23:49;;;;;;;37.47;23.90;;;231.00;2252.80;;;;;;5092613;28;20032;-62
2022/12/28 11:26:15;;;;;;;37.55;25.92;;;231.00;2252.80;;;;;;5092527;28;20016;-61
2022/12/28 11:28:50;;;;;;;28.80;17.33;;;231.10;2252.80;;;;;;5092404;28;20031;-60
2022/12/28 11:31:36;;;;;;;29.38;16.83;;;231.00;2252.80;;;;;;5092855;28;20060;-60
2022/12/28 11:34:05;;;;;;;22.58;17.33;;;231.10;2252.80;;;;;;5092491;28;20021;-61
2022/12/28 11:36:37;;;;;;;27.27;19.23;;;231.30;2252.80;;;;;;5092371;28;20106;-60
2022/12/28 11:39:24;;;;;;;23.05;15.25;;;231.10;2252.80;;;;;;5092462;28;20344;-62
2022/12/28 11:41:51;;;;;;;36.00;25.98;;;231.00;2252.80;;;;;;5092255;28;20026;-62
2022/12/28 11:44:24;;;;;;;56.47;34.45;;;231.20;2252.80;;;;;;5092181;28;20044;-61
2022/12/28 11:47:03;;;;;;;36.25;24.65;;;231.10;2252.80;;;;;;5092325;28;20016;-60
2022/12/28 11:49:31;;;;;;;41.30;24.08;;;231.10;2252.80;;;;;;5092305;28;20031;-61
2022/12/28 11:52:43;;;;;;;43.00;26.92;;;231.20;2252.80;;;;;;5091998;28;20389;-61
2022/12/28 11:55:21;;;;;;;40.30;23.77;;;231.20;2252.80;;;;;;5009709;28;20029;-60
2022/12/28 11:57:46;;;;;;;40.28;29.48;;;231.10;2252.80;;;;;;5010126;28;20619;-60
2022/12/28 12:00:18;;;;;;;36.70;22.55;;;231.30;2252.80;;;;;;5009909;28;20105;-60
2022/12/28 12:02:49;;;;;;;25.55;16.13;;;231.30;2252.80;;;;;;5009770;28;20026;-62
2022/12/28 12:05:51;;;;;;;34.60;21.67;;;231.30;2252.80;;;;;;5010162;28;20188;-61
2022/12/28 12:08:17;;;;;;;30.55;19.88;;;231.10;2252.80;;;;;;4932479;29;20039;-61
2022/12/28 12:10:46;;;;;;;56.88;35.40;;;231.20;2252.80;;;;;;4932138;29;20052;-60
2022/12/28 12:13:24;;;;;;;45.72;29.60;;;256.10;2252.80;;;;;;4932305;29;20132;-62
2022/12/28 12:16:00;;;;;;;33.85;24.70;;;231.30;2252.80;;;;;;4931919;29;20040;-61
2022/12/28 12:18:28;;;;;;;32.70;22.50;;;256.00;2252.80;;;;;;4932377;29;20028;-60
2022/12/28 12:21:08;;;;;;;24.10;17.48;;;256.10;2252.80;;;;;;4932199;29;20059;-61
2022/12/28 12:23:46;;;;;;;38.10;23.10;;;256.20;2252.80;;;;;;4933855;29;20040;-62
2022/12/28 12:26:28;;;;;;;46.15;26.55;;;256.20;2252.80;;;;;;4986449;28;20113;-61
2022/12/28 12:29:28;;;;;;;49.67;33.03;;;256.30;2252.80;;;;;;5010002;28;20036;-62
2022/12/28 12:32:20;;;;;;;43.17;30.50;;;256.30;2252.80;;;;;;4950872;28;20576;-62
2022/12/28 12:34:53;;;;;;;53.15;36.55;;;256.30;2252.80;;;;;;4912852;29;20064;-61
2022/12/28 12:37:28;;;;;;;30.27;22.63;;;256.40;2252.80;;;;;;4912583;29;20036;-61